Time;durP1;ratioP1;P1;durP2;ratioP2;P2;SDS_P1;SDS_P2;PMS_P1;PMS_P2;Temp;Humidity;BMP_temperature;BMP_pressure;BME280_temperature;BME280_humidity;BME280_pressure;Samples;Min_cycle;Max_cycle;Signal;HPM_P1;HPM_P2
2022/06/29 00:00:07;;;;;;;3.85;3.47;;;;;;;17.73;53.23;101066.63;676716;29;797;-79
2022/06/29 00:00:28;;;;;;;3.60;3.30;;;;;;;17.80;53.19;101079.88;677006;29;1511;-77
2022/06/29 00:00:49;;;;;;;4.38;3.50;;;;;;;17.74;53.33;101068.38;680021;29;1206;-77
2022/06/29 00:01:10;;;;;;;4.43;3.60;;;;;;;17.73;53.52;101070.16;679950;29;1567;-77
2022/06/29 00:01:31;;;;;;;4.03;3.50;;;;;;;17.69;53.50;101063.09;682457;28;1538;-77
2022/06/29 00:01:52;;;;;;;3.90;3.50;;;;;;;17.71;53.43;101065.75;682798;29;1724;-77
2022/06/29 00:02:12;;;;;;;4.40;3.50;;;;;;;17.77;53.44;101073.69;682438;28;1651;-77
2022/06/29 00:02:34;;;;;;;5.00;3.45;;;;;;;17.75;53.60;101068.41;684892;28;1272;-77
2022/06/29 00:02:56;;;;;;;5.50;3.90;;;;;;;17.77;53.78;101071.91;682558;29;1043;-77
2022/06/29 00:03:17;;;;;;;4.97;3.88;;;;;;;17.72;53.75;101062.22;680446;29;1802;-77
2022/06/29 00:03:37;;;;;;;4.53;4.07;;;;;;;17.76;53.61;101070.16;681858;28;1562;-77
2022/06/29 00:03:58;;;;;;;5.57;3.70;;;;;;;17.69;53.45;101063.09;680509;28;1199;-77
2022/06/29 00:04:19;;;;;;;5.80;3.63;;;;;;;17.70;53.63;101053.44;685623;28;1081;-77
2022/06/29 00:04:40;;;;;;;5.85;3.53;;;;;;;17.64;53.52;101055.16;680865;28;1267;-77
2022/06/29 00:05:05;;;;;;;4.05;3.40;;;;;;;17.72;53.52;101071.03;677853;29;1220;-77
2022/06/29 00:05:26;;;;;;;4.15;3.28;;;;;;;17.71;53.59;101068.38;679921;29;1810;-77
2022/06/29 00:05:47;;;;;;;3.95;3.40;;;;;;;17.70;53.85;101070.13;682606;29;1087;-77
2022/06/29 00:06:08;;;;;;;3.58;3.28;;;;;;;17.62;53.95;101058.66;681463;29;1221;-77
2022/06/29 00:06:28;;;;;;;3.75;3.08;;;;;;;17.68;53.94;101066.63;680047;29;1962;-77
2022/06/29 00:07:07;;;;;;;3.70;3.20;;;;;;;17.71;53.87;101077.19;679882;29;1192;-77
2022/06/29 00:07:28;;;;;;;4.68;3.70;;;;;;;17.67;53.78;101075.41;677342;29;1599;-77
2022/06/29 00:07:50;;;;;;;4.97;3.80;;;;;;;17.69;53.54;101073.66;680069;29;1231;-77
2022/06/29 00:08:11;;;;;;;4.20;3.80;;;;;;;17.63;53.51;101078.91;682043;28;1356;-77
2022/06/29 00:08:31;;;;;;;5.82;3.88;;;;;;;17.60;53.53;101068.34;682711;29;1879;-77
2022/06/29 00:08:52;;;;;;;5.72;3.90;;;;;;;17.58;53.44;101063.06;682772;29;1198;-77
2022/06/29 00:09:13;;;;;;;6.53;4.20;;;;;;;17.64;53.47;101075.41;676923;29;1105;-77
2022/06/29 00:09:33;;;;;;;4.20;3.78;;;;;;;17.62;53.52;101071.88;678366;29;1810;-77
2022/06/29 00:09:54;;;;;;;3.85;3.47;;;;;;;17.60;53.29;101073.63;685105;28;1233;-77
2022/06/29 00:10:16;;;;;;;3.50;3.20;;;;;;;17.60;53.61;101073.63;682447;29;1138;-77
2022/06/29 00:10:41;;;;;;;5.22;3.42;;;;;;;17.59;53.96;101067.50;683154;28;1795;-77
2022/06/29 00:11:02;;;;;;;5.55;3.72;;;;;;;17.58;53.95;101075.38;683249;28;1649;-78
2022/06/29 00:11:22;;;;;;;5.50;3.80;;;;;;;17.63;54.01;101071.88;682661;28;1969;-77
2022/06/29 00:11:43;;;;;;;4.30;3.90;;;;;;;17.56;53.91;101066.59;679040;29;1621;-77
2022/06/29 00:12:04;;;;;;;4.00;3.60;;;;;;;17.57;54.03;101060.44;677448;29;1208;-77
2022/06/29 00:12:25;;;;;;;4.03;3.63;;;;;;;17.62;53.87;101075.41;677607;29;899;-77
2022/06/29 00:12:47;;;;;;;3.60;3.30;;;;;;;17.61;53.69;101071.00;674858;29;1366;-77
2022/06/29 00:13:07;;;;;;;4.03;3.50;;;;;;;17.58;53.78;101070.13;675732;29;1421;-77
2022/06/29 00:13:29;;;;;;;5.55;3.75;;;;;;;17.56;53.95;101061.31;674360;29;1683;-77
2022/06/29 00:13:59;;;;;;;5.90;4.00;;;;;;;17.59;54.24;101074.50;677576;29;1170;-77
2022/06/29 00:14:19;;;;;;;3.72;3.42;;;;;;;17.58;54.26;101075.38;678324;29;1556;-78
2022/06/29 00:14:43;;;;;;;3.80;3.40;;;;;;;17.56;54.09;101063.97;679596;29;1602;-77
2022/06/29 00:15:05;;;;;;;4.57;3.50;;;;;;;17.61;53.90;101075.38;678868;29;1129;-77
2022/06/29 00:15:25;;;;;;;4.90;3.60;;;;;;;17.58;53.70;101067.47;679721;29;2009;-77
2022/06/29 00:15:46;;;;;;;6.25;3.50;;;;;;;17.57;53.84;101068.34;682266;29;1752;-77
2022/06/29 00:16:07;;;;;;;5.60;3.50;;;;;;;17.56;53.77;101069.22;682691;28;1136;-77
2022/06/29 00:16:27;;;;;;;5.53;3.40;;;;;;;17.57;53.80;101084.19;682664;29;2006;-77
2022/06/29 00:16:49;;;;;;;3.90;3.38;;;;;;;17.52;53.91;101063.94;677360;29;1322;-77
2022/06/29 00:17:11;;;;;;;5.27;3.70;;;;;;;17.52;53.82;101066.56;681446;29;1405;-77
2022/06/29 00:17:33;;;;;;;6.15;3.85;;;;;;;17.58;53.82;101080.66;678029;29;1915;-77
2022/06/29 00:17:54;;;;;;;5.63;3.58;;;;;;;17.51;54.17;101063.91;677401;29;968;-77
2022/06/29 00:18:14;;;;;;;6.75;3.50;;;;;;;17.50;54.16;101062.16;679951;29;1219;-77
2022/06/29 00:18:35;;;;;;;5.97;3.77;;;;;;;17.49;54.03;101056.00;679918;29;1543;-78
2022/06/29 00:18:56;;;;;;;5.90;3.70;;;;;;;17.56;53.89;101071.88;682654;29;1272;-77
2022/06/29 00:19:17;;;;;;;4.05;3.33;;;;;;;17.57;53.93;101076.28;677444;29;1455;-77
2022/06/29 00:19:41;;;;;;;3.40;3.10;;;;;;;17.53;53.83;101063.03;682078;29;1808;-77
2022/06/29 00:20:05;;;;;;;5.50;3.42;;;;;;;17.52;53.79;101066.56;681785;29;1837;-78
2022/06/29 00:20:26;;;;;;;6.10;3.63;;;;;;;17.48;53.87;101067.44;677323;29;1850;-77
2022/06/29 00:20:46;;;;;;;5.35;3.42;;;;;;;17.47;53.75;101067.44;682366;29;1179;-77
2022/06/29 00:21:13;;;;;;;5.27;3.40;;;;;;;17.58;53.67;101056.91;679935;29;1169;-77
2022/06/29 00:21:45;;;;;;;6.18;3.30;;;;;;;17.63;53.47;101063.97;677443;29;839;-77
2022/06/29 00:22:07;;;;;;;5.65;3.50;;;;;;;17.59;53.54;101067.50;679939;29;1348;-77
2022/06/29 00:22:28;;;;;;;4.32;3.60;;;;;;;17.56;53.66;101069.22;677149;29;1212;-78
2022/06/29 00:22:49;;;;;;;4.60;3.53;;;;;;;17.44;53.59;101052.47;677536;29;992;-77
2022/06/29 00:23:10;;;;;;;4.63;3.47;;;;;;;17.44;53.88;101055.09;680942;29;1726;-77
2022/06/29 00:23:31;;;;;;;4.80;3.40;;;;;;;17.42;53.95;101059.50;680166;29;765;-77
2022/06/29 00:23:52;;;;;;;4.32;3.63;;;;;;;17.45;53.65;101059.50;680011;29;1399;-77
2022/06/29 00:24:12;;;;;;;4.60;3.70;;;;;;;17.40;54.07;101061.25;681465;29;1596;-77
2022/06/29 00:24:33;;;;;;;4.43;3.80;;;;;;;17.46;54.10;101071.81;679154;29;1940;-77
2022/06/29 00:24:54;;;;;;;4.47;3.60;;;;;;;17.44;54.12;101067.44;677936;29;1070;-77
2022/06/29 00:25:16;;;;;;;4.72;3.53;;;;;;;17.42;54.09;101066.50;684860;28;1198;-77
2022/06/29 00:25:37;;;;;;;4.05;3.40;;;;;;;17.45;54.08;101054.22;681102;29;2055;-77
2022/06/29 00:25:58;;;;;;;4.53;3.60;;;;;;;17.53;53.82;101062.19;680208;29;1178;-77
2022/06/29 00:26:18;;;;;;;4.07;3.60;;;;;;;17.51;54.01;101064.81;677986;29;1594;-77
2022/06/29 00:26:40;;;;;;;4.35;3.67;;;;;;;17.43;54.22;101055.97;679229;29;2134;-77
2022/06/29 00:27:02;;;;;;;4.18;3.67;;;;;;;17.42;54.25;101053.31;681803;29;1218;-77
2022/06/29 00:27:23;;;;;;;4.00;3.60;;;;;;;17.37;54.60;101056.84;680246;29;883;-77
2022/06/29 00:27:44;;;;;;;3.90;3.50;;;;;;;17.43;54.68;101066.53;677591;29;903;-77
2022/06/29 00:28:05;;;;;;;3.90;3.50;;;;;;;17.35;54.66;101053.31;682112;28;1199;-77
2022/06/29 00:28:27;;;;;;;4.50;3.60;;;;;;;17.38;54.58;101062.97;679843;29;2019;-78
2022/06/29 00:28:51;;;;;;;4.82;3.72;;;;;;;17.38;54.51;101061.25;678255;29;836;-77
2022/06/29 00:29:12;;;;;;;5.70;3.90;;;;;;;17.35;54.43;101060.34;677528;29;1795;-77
2022/06/29 00:29:32;;;;;;;5.25;3.88;;;;;;;17.33;54.56;101056.81;680374;28;1681;-77
2022/06/29 00:29:53;;;;;;;4.07;3.60;;;;;;;17.39;54.36;101063.00;679602;29;1287;-77
2022/06/29 00:30:14;;;;;;;3.90;3.50;;;;;;;17.32;54.44;101052.44;677581;29;1104;-77
2022/06/29 00:30:35;;;;;;;3.88;3.50;;;;;;;17.28;54.50;101055.91;679845;29;1704;-77
2022/06/29 00:30:56;;;;;;;4.03;3.63;;;;;;;17.32;54.51;101062.97;682485;29;1347;-77
2022/06/29 00:31:17;;;;;;;4.28;3.88;;;;;;;17.29;54.58;101058.56;680155;29;1154;-77
2022/06/29 00:31:38;;;;;;;4.32;3.92;;;;;;;17.30;54.62;101060.31;679105;29;1469;-77
2022/06/29 00:31:59;;;;;;;4.30;3.90;;;;;;;17.26;54.98;101056.78;685830;28;1038;-77
2022/06/29 00:32:20;;;;;;;4.20;3.80;;;;;;;17.28;54.75;101061.19;680448;28;1886;-77
2022/06/29 00:32:41;;;;;;;3.90;3.60;;;;;;;17.31;54.62;101066.47;679142;29;2000;-78
2022/06/29 00:33:02;;;;;;;3.88;3.58;;;;;;;17.24;54.77;101050.63;678598;29;1256;-77
2022/06/29 00:33:22;;;;;;;3.88;3.58;;;;;;;17.24;54.99;101061.19;682819;29;1173;-77
2022/06/29 00:33:43;;;;;;;3.80;3.50;;;;;;;17.23;54.98;101054.13;681956;29;1507;-77
2022/06/29 00:34:04;;;;;;;3.97;3.60;;;;;;;17.25;54.96;101060.31;679483;29;1136;-77
2022/06/29 00:34:24;;;;;;;5.82;3.67;;;;;;;17.26;55.01;101061.16;682901;29;1167;-77
2022/06/29 00:34:45;;;;;;;8.68;4.20;;;;;;;17.20;54.93;101047.94;679806;29;1698;-77
2022/06/29 00:35:07;;;;;;;9.10;4.13;;;;;;;17.24;54.81;101055.00;675840;29;1493;-77
2022/06/29 00:35:28;;;;;;;4.40;3.78;;;;;;;17.21;54.86;101050.59;678732;29;1354;-77
2022/06/29 00:35:48;;;;;;;4.15;3.70;;;;;;;17.20;54.80;101053.22;676704;29;1789;-77
2022/06/29 00:36:20;;;;;;;4.00;3.70;;;;;;;17.24;54.63;101063.81;679185;29;1604;-77
2022/06/29 00:36:41;;;;;;;4.15;3.78;;;;;;;17.20;54.83;101054.09;679248;29;1442;-77
2022/06/29 00:37:03;;;;;;;4.20;3.80;;;;;;;17.20;54.92;101064.63;679997;29;1125;-77
2022/06/29 00:37:25;;;;;;;7.70;4.03;;;;;;;17.20;54.89;101061.13;679847;29;1740;-77
2022/06/29 00:37:46;;;;;;;8.90;3.80;;;;;;;17.21;54.95;101060.25;682522;29;1916;-77
2022/06/29 00:38:07;;;;;;;7.93;3.83;;;;;;;17.16;55.06;101054.97;685075;28;1843;-77
2022/06/29 00:38:29;;;;;;;5.90;3.60;;;;;;;17.17;55.04;101054.09;685281;28;1946;-77
2022/06/29 00:38:49;;;;;;;6.90;4.00;;;;;;;17.16;55.25;101057.59;679905;29;1070;-77
2022/06/29 00:39:11;;;;;;;6.50;4.10;;;;;;;17.14;55.15;101059.31;685281;28;1177;-77
2022/06/29 00:39:32;;;;;;;6.38;4.10;;;;;;;17.21;54.98;101061.16;684138;28;1688;-77
2022/06/29 00:39:54;;;;;;;6.10;4.00;;;;;;;17.20;54.71;101047.94;679955;29;975;-77
2022/06/29 00:40:15;;;;;;;5.47;3.80;;;;;;;17.20;54.98;101059.34;679453;29;1089;-77
2022/06/29 00:40:50;;;;;;;4.70;3.70;;;;;;;17.18;54.92;101058.47;679707;29;1591;-77
2022/06/29 00:41:10;;;;;;;3.83;3.53;;;;;;;17.17;54.92;101059.34;679488;29;1817;-77
2022/06/29 00:41:36;;;;;;;3.90;3.60;;;;;;;17.13;54.88;101057.56;680190;29;807;-77
2022/06/29 00:41:56;;;;;;;3.80;3.50;;;;;;;17.16;54.98;101060.22;678787;29;1163;-77
2022/06/29 00:42:17;;;;;;;3.65;3.35;;;;;;;17.16;54.85;101057.59;680184;28;1129;-77
2022/06/29 00:42:38;;;;;;;3.60;3.30;;;;;;;17.15;54.91;101058.44;681078;29;1891;-77
2022/06/29 00:42:58;;;;;;;3.90;3.50;;;;;;;17.14;54.80;101059.31;677244;29;1010;-77
2022/06/29 00:43:20;;;;;;;3.90;3.50;;;;;;;17.10;54.91;101047.00;682740;29;1102;-77
2022/06/29 00:43:42;;;;;;;4.45;3.72;;;;;;;17.09;55.06;101050.53;679803;29;1300;-77
2022/06/29 00:44:03;;;;;;;4.30;3.70;;;;;;;17.11;55.13;101048.78;677270;29;1183;-77
2022/06/29 00:44:24;;;;;;;4.65;3.65;;;;;;;17.10;54.90;101047.88;680301;29;1975;-77
2022/06/29 00:44:45;;;;;;;4.45;3.40;;;;;;;17.09;55.07;101050.53;679245;29;1965;-77
2022/06/29 00:45:06;;;;;;;4.70;3.30;;;;;;;17.13;55.07;101057.56;678025;29;1167;-77
2022/06/29 00:45:27;;;;;;;3.80;3.30;;;;;;;17.09;55.01;101050.53;677426;29;1121;-77
2022/06/29 00:45:47;;;;;;;3.90;3.50;;;;;;;17.13;54.95;101057.56;682518;28;1408;-77
2022/06/29 00:46:08;;;;;;;3.90;3.60;;;;;;;17.12;54.85;101055.81;677287;29;1078;-77
2022/06/29 00:46:29;;;;;;;4.20;3.80;;;;;;;17.13;54.79;101053.19;682147;29;2074;-77
2022/06/29 00:46:54;;;;;;;4.28;3.88;;;;;;;17.11;54.80;101049.63;679876;29;1760;-77
2022/06/29 00:47:16;;;;;;;4.32;3.70;;;;;;;17.07;54.73;101044.34;676965;29;1216;-77
2022/06/29 00:47:37;;;;;;;4.90;3.20;;;;;;;17.12;54.82;101055.81;679911;29;1607;-78
2022/06/29 00:47:57;;;;;;;5.10;3.15;;;;;;;17.08;54.70;101043.50;678796;29;1867;-76
2022/06/29 00:48:18;;;;;;;5.20;3.40;;;;;;;17.09;54.62;101051.38;680178;29;1081;-77
2022/06/29 00:48:38;;;;;;;4.83;3.60;;;;;;;17.07;54.63;101047.88;674691;29;1496;-77
2022/06/29 00:48:59;;;;;;;3.97;3.55;;;;;;;17.12;54.62;101053.16;679547;29;1752;-77
2022/06/29 00:49:22;;;;;;;3.80;3.50;;;;;;;17.07;54.51;101046.97;682650;29;1447;-77
2022/06/29 00:49:43;;;;;;;4.35;3.50;;;;;;;17.06;54.50;101050.50;680274;29;1689;-77
2022/06/29 00:50:05;;;;;;;4.10;3.40;;;;;;;17.13;54.72;101057.56;677239;29;1212;-77
2022/06/29 00:50:29;;;;;;;4.75;3.28;;;;;;;17.10;54.53;101057.56;672266;29;1378;-77
2022/06/29 00:50:50;;;;;;;5.25;3.45;;;;;;;17.10;54.65;101057.56;676266;29;1071;-77
2022/06/29 00:51:12;;;;;;;4.82;3.30;;;;;;;17.05;54.74;101048.72;681596;28;1517;-77
2022/06/29 00:51:35;;;;;;;3.70;3.05;;;;;;;17.11;54.84;101054.91;685171;28;1951;-77
2022/06/29 00:52:15;;;;;;;3.40;3.10;;;;;;;17.13;54.70;101060.19;682681;28;970;-77
2022/06/29 00:52:41;;;;;;;4.10;3.70;;;;;;;17.10;54.79;101050.50;679697;29;1464;-77
2022/06/29 00:53:04;;;;;;;4.90;3.70;;;;;;;17.04;54.77;101039.06;677834;29;1223;-77
2022/06/29 00:53:27;;;;;;;5.07;3.63;;;;;;;17.03;54.82;101039.94;677014;29;1993;-77
2022/06/29 00:53:50;;;;;;;4.28;3.47;;;;;;;17.10;54.81;101052.28;682434;29;1352;-77
2022/06/29 00:54:17;;;;;;;3.75;3.33;;;;;;;17.12;54.75;101053.16;682436;29;1260;-77
2022/06/29 00:54:51;;;;;;;4.40;3.25;;;;;;;17.11;54.74;101060.19;685063;28;1262;-77
2022/06/29 00:55:22;;;;;;;5.45;3.38;;;;;;;17.06;54.86;101050.50;679895;29;1309;-77
2022/06/29 00:55:50;;;;;;;4.30;3.15;;;;;;;17.08;54.75;101043.50;677175;29;1540;-77
2022/06/29 00:56:13;;;;;;;4.75;3.20;;;;;;;17.08;54.78;101047.00;674690;29;1215;-77
2022/06/29 00:56:34;;;;;;;4.78;3.30;;;;;;;17.08;54.91;101043.50;674888;29;774;-77
2022/06/29 00:56:56;;;;;;;3.72;3.42;;;;;;;17.10;54.76;101058.41;674679;29;1222;-77
2022/06/29 00:57:27;;;;;;;3.80;3.20;;;;;;;17.08;55.03;101048.75;680124;29;1232;-77
2022/06/29 00:57:50;;;;;;;3.80;3.28;;;;;;;17.11;55.05;101048.78;679411;29;1970;-77
2022/06/29 00:58:11;;;;;;;3.55;3.25;;;;;;;17.09;55.20;101040.84;678086;29;1282;-77
2022/06/29 00:58:32;;;;;;;3.67;3.20;;;;;;;17.10;55.50;101044.38;674821;29;1671;-77
2022/06/29 00:58:55;;;;;;;3.90;3.30;;;;;;;17.07;55.41;101042.59;682649;29;997;-77
2022/06/29 00:59:20;;;;;;;4.30;3.45;;;;;;;17.13;55.46;101050.53;679639;29;1817;-78
2022/06/29 00:59:47;;;;;;;4.88;3.15;;;;;;;17.15;55.51;101050.53;681651;29;1621;-76
2022/06/29 01:00:09;;;;;;;5.03;2.90;;;;;;;17.09;55.62;101039.97;681338;29;1176;-77
2022/06/29 01:00:30;;;;;;;6.35;3.10;;;;;;;17.10;55.87;101041.72;679903;29;1970;-77
2022/06/29 01:00:51;;;;;;;4.70;3.30;;;;;;;17.09;55.63;101040.84;684983;28;996;-77
2022/06/29 01:01:14;;;;;;;4.72;3.50;;;;;;;17.09;56.02;101045.25;682502;29;1336;-77
2022/06/29 01:01:36;;;;;;;4.93;3.58;;;;;;;17.07;55.76;101041.69;682144;29;1274;-77
2022/06/29 01:01:57;;;;;;;6.85;4.00;;;;;;;17.13;55.98;101060.19;682772;28;1368;-77
2022/06/29 01:02:21;;;;;;;7.30;3.92;;;;;;;17.14;56.06;101054.03;680007;29;1106;-77
2022/06/29 01:02:41;;;;;;;6.72;3.72;;;;;;;17.09;56.05;101046.13;681583;29;1598;-77
2022/06/29 01:03:03;;;;;;;5.10;3.25;;;;;;;17.02;55.93;101041.69;681147;28;2456;-77
2022/06/29 01:03:23;;;;;;;5.15;3.30;;;;;;;17.05;55.87;101043.47;685302;28;1221;-77
2022/06/29 01:03:44;;;;;;;4.30;3.28;;;;;;;17.08;55.81;101047.00;682811;28;2076;-77
2022/06/29 01:04:05;;;;;;;7.40;3.50;;;;;;;17.05;55.99;101038.19;680429;28;1217;-78
2022/06/29 01:04:26;;;;;;;6.70;3.47;;;;;;;17.05;56.09;101041.72;682712;29;1220;-77
2022/06/29 01:04:47;;;;;;;6.78;3.60;;;;;;;17.06;55.91;101045.22;681199;29;2370;-78
2022/06/29 01:05:09;;;;;;;4.13;3.72;;;;;;;17.02;55.84;101041.69;678581;29;1901;-77
2022/06/29 01:05:31;;;;;;;4.07;3.67;;;;;;;17.08;55.86;101048.75;680231;29;887;-77
2022/06/29 01:05:52;;;;;;;3.88;3.47;;;;;;;17.04;55.98;101046.97;679631;29;1362;-77
2022/06/29 01:06:13;;;;;;;3.70;3.40;;;;;;;16.97;55.88;101033.75;677246;29;1066;-77
2022/06/29 01:06:34;;;;;;;4.20;3.70;;;;;;;17.04;56.01;101041.69;677223;29;1314;-77
2022/06/29 01:06:55;;;;;;;4.20;3.70;;;;;;;16.99;56.14;101037.25;677369;29;1171;-77
2022/06/29 01:07:19;;;;;;;4.10;3.50;;;;;;;17.05;56.10;101043.47;679920;29;1173;-77
2022/06/29 01:07:40;;;;;;;3.92;3.50;;;;;;;17.03;56.31;101039.94;679703;29;1489;-77
2022/06/29 01:08:00;;;;;;;4.35;3.30;;;;;;;16.96;56.29;101034.63;673563;29;1236;-77
2022/06/29 01:08:21;;;;;;;4.50;3.40;;;;;;;17.01;56.28;101039.06;675289;29;1193;-77
2022/06/29 01:08:42;;;;;;;4.93;3.35;;;;;;;17.01;56.74;101036.41;676352;29;1261;-77
2022/06/29 01:09:04;;;;;;;6.03;3.50;;;;;;;17.04;56.34;101046.97;675388;29;1155;-77
2022/06/29 01:09:25;;;;;;;6.60;3.50;;;;;;;17.02;56.49;101038.19;677290;29;745;-77
2022/06/29 01:09:46;;;;;;;6.30;3.50;;;;;;;17.05;56.52;101047.00;679420;29;1005;-77
2022/06/29 01:10:07;;;;;;;4.50;3.40;;;;;;;17.04;56.65;101045.22;678524;29;1247;-77
2022/06/29 01:10:29;;;;;;;4.20;3.40;;;;;;;16.99;56.46;101039.03;674920;29;1588;-77
2022/06/29 01:10:49;;;;;;;3.95;3.50;;;;;;;17.04;56.74;101039.06;674799;29;1104;-77
2022/06/29 01:11:10;;;;;;;4.60;3.57;;;;;;;17.02;56.45;101040.81;679460;29;1511;-77
2022/06/29 01:11:32;;;;;;;5.45;3.70;;;;;;;17.06;56.42;101045.22;679926;29;1496;-77
2022/06/29 01:11:53;;;;;;;5.80;3.70;;;;;;;17.03;56.59;101040.81;679798;29;1376;-77
2022/06/29 01:12:14;;;;;;;5.30;3.60;;;;;;;17.01;56.47;101037.28;679954;29;1058;-77
2022/06/29 01:12:35;;;;;;;5.05;3.40;;;;;;;17.02;56.53;101038.19;681720;29;1557;-76
2022/06/29 01:12:58;;;;;;;4.95;3.60;;;;;;;17.01;56.38;101032.00;682906;28;1053;-77
2022/06/29 01:13:19;;;;;;;4.18;3.72;;;;;;;16.98;56.42;101038.16;674424;29;1853;-77
2022/06/29 01:13:44;;;;;;;4.10;3.65;;;;;;;16.98;56.44;101032.88;679584;29;1993;-77
2022/06/29 01:14:05;;;;;;;4.40;3.60;;;;;;;17.01;56.46;101033.78;675617;29;1188;-77
2022/06/29 01:14:26;;;;;;;7.60;3.90;;;;;;;17.01;56.36;101039.91;677183;29;1633;-76
2022/06/29 01:14:48;;;;;;;7.60;3.90;;;;;;;16.99;56.53;101033.75;675413;29;2010;-77
2022/06/29 01:15:09;;;;;;;7.72;3.90;;;;;;;16.99;56.48;101039.91;680692;29;1344;-77
2022/06/29 01:15:30;;;;;;;6.57;3.70;;;;;;;17.03;56.74;101045.22;679861;29;1412;-77
2022/06/29 01:15:51;;;;;;;6.90;3.88;;;;;;;17.05;56.53;101043.47;679955;29;1002;-77
2022/06/29 01:16:12;;;;;;;6.00;3.90;;;;;;;17.01;56.62;101036.41;677150;29;1245;-77
2022/06/29 01:16:33;;;;;;;5.95;4.03;;;;;;;17.01;56.63;101031.16;677119;29;1571;-77
2022/06/29 01:16:55;;;;;;;5.10;3.95;;;;;;;16.97;56.52;101036.38;682674;29;1112;-77
2022/06/29 01:17:16;;;;;;;4.50;3.75;;;;;;;16.99;56.23;101037.25;681218;29;1800;-76
2022/06/29 01:17:37;;;;;;;4.00;3.60;;;;;;;17.02;56.46;101043.44;679734;29;1980;-77
2022/06/29 01:17:58;;;;;;;4.15;3.58;;;;;;;16.98;56.38;101035.50;679412;29;1129;-77
2022/06/29 01:18:18;;;;;;;5.07;3.80;;;;;;;16.98;56.33;101035.50;682609;29;1093;-77
2022/06/29 01:18:39;;;;;;;5.17;3.80;;;;;;;16.94;56.24;101031.09;680400;29;1957;-77
2022/06/29 01:19:00;;;;;;;5.40;3.90;;;;;;;16.95;56.24;101029.34;682489;28;1259;-77
2022/06/29 01:19:22;;;;;;;4.30;3.60;;;;;;;16.99;56.10;101045.19;685255;28;1201;-77
2022/06/29 01:19:44;;;;;;;4.55;3.72;;;;;;;17.01;56.12;101047.81;681674;29;1538;-77
2022/06/29 01:20:05;;;;;;;4.28;3.67;;;;;;;16.95;56.41;101027.59;677077;29;1440;-77
2022/06/29 01:20:26;;;;;;;4.50;3.83;;;;;;;17.01;56.67;101039.06;676955;29;1765;-77
2022/06/29 01:20:47;;;;;;;4.10;3.70;;;;;;;16.96;56.52;101029.34;677335;29;1189;-77
2022/06/29 01:21:10;;;;;;;4.78;3.85;;;;;;;16.98;56.65;101043.41;675437;29;1205;-77
2022/06/29 01:21:35;;;;;;;5.10;4.00;;;;;;;17.03;56.87;101043.44;674704;29;814;-77
2022/06/29 01:22:01;;;;;;;4.75;3.75;;;;;;;16.95;56.77;101027.59;677271;29;992;-77
2022/06/29 01:22:25;;;;;;;4.10;3.65;;;;;;;16.98;56.73;101032.00;679290;29;1341;-77
2022/06/29 01:22:47;;;;;;;5.78;3.70;;;;;;;16.99;56.69;101039.03;679716;29;1919;-77
2022/06/29 01:23:07;;;;;;;5.85;3.53;;;;;;;17.04;56.78;101044.34;678705;29;1241;-77
2022/06/29 01:23:28;;;;;;;6.63;3.60;;;;;;;17.02;56.62;101040.81;679900;29;1734;-77
2022/06/29 01:23:49;;;;;;;4.97;3.70;;;;;;;17.04;56.48;101037.31;679965;29;1142;-77
2022/06/29 01:24:10;;;;;;;4.70;4.00;;;;;;;17.03;56.64;101043.44;684554;28;1100;-77
2022/06/29 01:24:30;;;;;;;4.80;4.18;;;;;;;17.02;56.71;101039.03;685259;28;772;-77
2022/06/29 01:24:51;;;;;;;5.03;4.07;;;;;;;17.01;56.78;101032.00;685136;28;1264;-77
2022/06/29 01:25:12;;;;;;;5.00;4.10;;;;;;;17.03;56.76;101037.31;679969;29;1093;-77
2022/06/29 01:25:33;;;;;;;4.40;4.00;;;;;;;17.02;56.72;101032.91;679078;29;1741;-77
2022/06/29 01:25:54;;;;;;;4.43;4.03;;;;;;;17.03;56.90;101034.66;682086;29;1256;-77
2022/06/29 01:26:15;;;;;;;4.30;3.90;;;;;;;17.06;56.67;101040.84;679955;29;1097;-77
2022/06/29 01:26:36;;;;;;;4.10;3.70;;;;;;;17.06;56.65;101039.94;679569;29;1543;-77
2022/06/29 01:26:57;;;;;;;4.57;3.75;;;;;;;17.03;56.78;101029.38;674653;29;1315;-77
2022/06/29 01:27:19;;;;;;;6.75;4.10;;;;;;;17.02;56.94;101032.91;678925;29;1611;-77
2022/06/29 01:27:41;;;;;;;6.85;4.32;;;;;;;17.02;56.71;101030.28;677797;29;1773;-77
2022/06/29 01:28:02;;;;;;;6.10;4.30;;;;;;;17.05;56.71;101032.91;674460;29;1131;-77
2022/06/29 01:28:23;;;;;;;4.60;4.20;;;;;;;16.99;56.68;101023.22;674771;29;1484;-76
2022/06/29 01:28:47;;;;;;;4.57;4.18;;;;;;;17.01;56.83;101020.59;677045;29;1563;-77
2022/06/29 01:29:09;;;;;;;4.90;4.10;;;;;;;17.04;56.65;101025.88;677223;29;1343;-77
2022/06/29 01:29:30;;;;;;;5.20;4.30;;;;;;;17.08;56.54;101036.44;679334;29;1668;-77
2022/06/29 01:29:52;;;;;;;5.70;4.60;;;;;;;17.06;56.55;101030.28;676965;29;1095;-77
2022/06/29 01:30:13;;;;;;;5.10;4.60;;;;;;;17.09;56.75;101039.97;678837;29;1391;-77
2022/06/29 01:30:33;;;;;;;4.72;4.30;;;;;;;17.07;56.57;101037.31;674513;29;1496;-77
2022/06/29 01:30:54;;;;;;;4.60;4.20;;;;;;;17.11;56.72;101043.50;679869;29;1638;-77
2022/06/29 01:31:18;;;;;;;5.15;4.20;;;;;;;17.10;56.73;101039.97;682188;29;1227;-76
2022/06/29 01:31:39;;;;;;;6.30;4.30;;;;;;;17.05;56.55;101025.91;679833;29;1615;-77
2022/06/29 01:32:00;;;;;;;6.20;4.38;;;;;;;17.02;56.52;101025.00;682470;29;1393;-77
2022/06/29 01:32:21;;;;;;;4.97;4.35;;;;;;;17.09;56.41;101032.06;679231;29;1868;-77
2022/06/29 01:32:43;;;;;;;4.60;4.20;;;;;;;17.05;56.44;101030.28;679761;29;915;-77
2022/06/29 01:33:04;;;;;;;4.57;4.18;;;;;;;17.11;56.68;101041.72;690340;28;1241;-77
2022/06/29 01:33:24;;;;;;;4.50;4.10;;;;;;;17.08;56.36;101033.81;687939;28;1330;-77
2022/06/29 01:33:47;;;;;;;5.13;4.63;;;;;;;17.07;56.20;101031.16;687788;28;1589;-77
2022/06/29 01:34:07;;;;;;;5.30;4.80;;;;;;;17.07;56.21;101023.25;687861;28;1068;-77
2022/06/29 01:34:30;;;;;;;5.35;4.85;;;;;;;17.09;55.91;101035.56;680079;29;1340;-77
2022/06/29 01:34:52;;;;;;;5.45;4.70;;;;;;;17.11;55.83;101032.94;679363;29;1485;-77
2022/06/29 01:35:14;;;;;;;5.35;4.53;;;;;;;17.11;55.93;101038.22;682193;28;1772;-77
2022/06/29 01:35:34;;;;;;;6.18;4.82;;;;;;;17.06;55.88;101032.03;677470;29;1611;-77
2022/06/29 01:35:55;;;;;;;5.20;4.70;;;;;;;17.05;55.91;101025.00;682477;29;1412;-77
2022/06/29 01:36:17;;;;;;;7.10;4.90;;;;;;;17.10;55.86;101036.47;682090;29;1181;-77
2022/06/29 01:36:38;;;;;;;6.13;4.60;;;;;;;17.04;55.82;101020.59;677508;29;768;-77
2022/06/29 01:37:00;;;;;;;8.18;4.70;;;;;;;17.11;56.01;101032.94;682728;28;1128;-77
2022/06/29 01:37:21;;;;;;;7.93;5.00;;;;;;;17.03;55.99;101019.72;685246;28;1468;-77
2022/06/29 01:37:42;;;;;;;8.18;5.05;;;;;;;17.04;55.89;101025.88;679826;29;1973;-77
2022/06/29 01:38:03;;;;;;;6.13;5.10;;;;;;;17.04;55.72;101020.59;678975;29;1273;-77
2022/06/29 01:38:23;;;;;;;6.20;5.30;;;;;;;17.06;55.67;101025.03;677365;29;1099;-77
2022/06/29 01:38:44;;;;;;;6.00;5.40;;;;;;;17.09;55.77;101030.28;675825;29;1232;-77
2022/06/29 01:39:05;;;;;;;6.68;5.65;;;;;;;17.06;55.63;101021.47;678259;29;1253;-77
2022/06/29 01:39:28;;;;;;;6.75;5.45;;;;;;;17.03;55.62;101018.84;682472;29;1045;-77
2022/06/29 01:39:48;;;;;;;6.70;5.47;;;;;;;17.06;55.62;101026.75;682181;29;1111;-77
2022/06/29 01:40:10;;;;;;;5.85;5.25;;;;;;;17.02;55.49;101017.09;682468;29;1221;-77
2022/06/29 01:40:32;;;;;;;5.82;5.22;;;;;;;17.01;55.66;101016.19;679911;29;1100;-77
2022/06/29 01:40:53;;;;;;;5.93;5.32;;;;;;;17.11;55.74;101028.53;679618;29;1710;-77
2022/06/29 01:41:13;;;;;;;6.40;5.80;;;;;;;17.02;55.47;101017.09;682025;29;1161;-76
2022/06/29 01:41:34;;;;;;;6.63;5.93;;;;;;;17.08;55.83;101022.41;681936;29;1218;-77
2022/06/29 01:41:55;;;;;;;6.90;6.20;;;;;;;17.11;55.94;101025.03;678903;29;1154;-77
2022/06/29 01:42:16;;;;;;;9.00;6.20;;;;;;;17.07;55.97;101020.59;675565;29;1559;-77
2022/06/29 01:42:37;;;;;;;9.13;6.28;;;;;;;17.12;55.94;101029.44;677154;29;1103;-77
2022/06/29 01:43:13;;;;;;;9.73;6.18;;;;;;;17.11;55.89;101025.03;677167;29;1085;-77
2022/06/29 01:43:34;;;;;;;9.05;6.18;;;;;;;17.15;55.86;101024.16;675870;29;1382;-77
2022/06/29 01:43:55;;;;;;;8.48;6.10;;;;;;;17.09;55.95;101018.88;677231;29;1043;-77
2022/06/29 01:44:16;;;;;;;8.00;5.70;;;;;;;17.15;55.90;101021.53;677123;29;1106;-77